createdAt,value
2022-11-05T00:00:34.052Z,93.89
2022-11-05T00:03:18.826Z,93.57
2022-11-05T00:06:07.394Z,93.55
2022-11-05T00:08:52.743Z,94.24
2022-11-05T00:11:19.199Z,95.02
2022-11-05T00:14:04.288Z,95.17
2022-11-05T00:16:45.583Z,94.95
2022-11-05T00:19:13.387Z,94.53
2022-11-05T00:21:58.407Z,94.45
2022-11-05T00:24:43.738Z,94.87
2022-11-05T00:27:10.733Z,94.24
2022-11-05T00:29:37.123Z,94.73
2022-11-05T00:32:03.699Z,94.10
2022-11-05T00:34:32.034Z,94.36
2022-11-05T00:36:58.394Z,95.34
2022-11-05T00:39:24.770Z,96.99
2022-11-05T00:42:11.101Z,95.99
2022-11-05T00:44:56.259Z,96.23
2022-11-05T00:47:40.948Z,96.79
2022-11-05T00:50:07.694Z,96.10
2022-11-05T00:52:52.592Z,95.42
2022-11-05T00:55:18.983Z,95.17
2022-11-05T00:57:45.446Z,95.15
2022-11-05T01:00:12.505Z,94.83
2022-11-05T01:02:38.964Z,95.16
2022-11-05T01:05:05.910Z,96.27
2022-11-05T01:07:32.355Z,95.95
2022-11-05T01:09:58.709Z,97.45
2022-11-05T01:12:25.146Z,97.95
2022-11-05T01:14:51.518Z,97.49
2022-11-05T01:17:17.975Z,97.31
2022-11-05T01:19:44.324Z,97.77
2022-11-05T01:22:10.706Z,97.21
2022-11-05T01:24:37.183Z,98.19
2022-11-05T01:27:03.659Z,96.44
2022-11-05T01:29:30.033Z,96.11
2022-11-05T01:31:56.384Z,95.87
2022-11-05T01:34:22.869Z,94.85
2022-11-05T01:36:49.266Z,94.95
2022-11-05T01:39:15.923Z,95.63
2022-11-05T01:41:42.327Z,95.04
2022-11-05T01:44:49.809Z,94.21
2022-11-05T01:47:41.413Z,93.98
2022-11-05T01:50:20.010Z,94.20
2022-11-05T01:52:48.452Z,94.10
2022-11-05T01:55:18.489Z,94.24
2022-11-05T01:57:45.199Z,93.88
2022-11-05T02:00:12.380Z,94.32
2022-11-05T02:02:39.071Z,94.24
2022-11-05T02:05:07.009Z,94.30
2022-11-05T02:07:33.819Z,94.85
2022-11-05T02:10:09.219Z,94.19
2022-11-05T02:12:39.228Z,94.33
2022-11-05T02:15:06.991Z,94.12
2022-11-05T02:17:36.161Z,94.58
2022-11-05T02:20:13.494Z,95.19
2022-11-05T02:22:51.835Z,93.91
2022-11-05T02:25:37.078Z,93.50
2022-11-05T02:28:15.512Z,93.91
2022-11-05T02:31:09.309Z,94.22
2022-11-05T02:33:47.355Z,94.33
2022-11-05T02:36:20.763Z,94.83
2022-11-05T02:38:58.608Z,94.08
2022-11-05T02:41:33.906Z,94.55
2022-11-05T02:44:19.142Z,94.72
2022-11-05T02:46:51.646Z,95.25
2022-11-05T02:49:23.968Z,94.71
2022-11-05T02:51:57.845Z,95.04
2022-11-05T02:54:36.326Z,94.56
2022-11-05T02:57:04.723Z,94.68
2022-11-05T02:59:31.743Z,94.02
2022-11-05T03:02:00.782Z,94.63
2022-11-05T03:04:28.275Z,94.47
2022-11-05T03:07:15.888Z,94.12
2022-11-05T03:10:16.159Z,94.55
2022-11-05T03:13:14.138Z,95.23
2022-11-05T03:15:52.540Z,94.57
2022-11-05T03:18:46.075Z,94.78
2022-11-05T03:21:20.894Z,95.19
2022-11-05T03:23:55.985Z,95.16
2022-11-05T03:26:29.057Z,94.56
2022-11-05T03:29:07.604Z,94.50
2022-11-05T03:31:36.532Z,94.11
2022-11-05T03:34:06.076Z,94.41
2022-11-05T03:36:39.479Z,92.97
2022-11-05T03:39:10.843Z,92.98
2022-11-05T03:41:43.115Z,93.43
2022-11-05T03:44:15.748Z,93.45
2022-11-05T03:46:45.416Z,92.52
2022-11-05T03:49:21.560Z,93.30
2022-11-05T03:52:05.951Z,93.98
2022-11-05T03:54:33.988Z,94.33
2022-11-05T03:57:25.856Z,94.00
2022-11-05T03:59:52.456Z,94.24
2022-11-05T04:02:22.721Z,98.40
2022-11-05T04:04:49.335Z,98.02
2022-11-05T04:07:34.076Z,98.76
2022-11-05T04:10:18.840Z,98.79
2022-11-05T04:13:04.092Z,98.72
2022-11-05T04:15:30.734Z,99.23
2022-11-05T04:17:59.999Z,98.71
2022-11-05T04:20:45.182Z,97.89
2022-11-05T04:23:30.378Z,96.90
2022-11-05T04:25:56.735Z,96.71
2022-11-05T04:28:43.081Z,96.75
2022-11-05T04:31:09.428Z,96.30
2022-11-05T04:33:35.852Z,96.90
2022-11-05T04:36:02.344Z,100.00
2022-11-05T04:38:28.694Z,100.00
2022-11-05T04:41:12.483Z,100.00
2022-11-05T04:43:38.941Z,100.00
2022-11-05T04:46:05.424Z,100.00
2022-11-05T04:48:31.965Z,99.46
2022-11-05T04:50:58.321Z,98.39
2022-11-05T04:53:24.740Z,97.78
2022-11-05T04:55:51.098Z,97.35
2022-11-05T04:58:17.523Z,97.31
2022-11-05T05:00:44.100Z,96.98
2022-11-05T05:03:10.959Z,96.52
2022-11-05T05:05:37.557Z,99.07
2022-11-05T05:08:05.000Z,98.90
2022-11-05T05:10:32.526Z,99.36
2022-11-05T05:12:58.908Z,98.81
2022-11-05T05:15:25.269Z,100.00
2022-11-05T05:17:52.304Z,100.00
2022-11-05T05:20:39.784Z,100.00
2022-11-05T05:23:06.224Z,100.00
2022-11-05T05:25:32.620Z,99.62
2022-11-05T05:27:59.063Z,98.93
2022-11-05T05:30:25.813Z,99.47
2022-11-05T05:32:52.174Z,99.59
2022-11-05T05:35:18.535Z,99.03
2022-11-05T05:37:44.921Z,99.10
2022-11-05T05:40:11.783Z,98.86
2022-11-05T05:42:42.900Z,98.41
2022-11-05T05:45:10.661Z,97.01
2022-11-05T05:47:37.032Z,95.49
2022-11-05T05:50:03.767Z,95.29
2022-11-05T05:52:30.191Z,95.34
2022-11-05T05:54:56.564Z,95.51
2022-11-05T05:57:23.089Z,95.45
2022-11-05T05:59:49.473Z,95.00
2022-11-05T06:02:16.111Z,96.77
2022-11-05T06:04:42.605Z,96.33
2022-11-05T06:07:09.001Z,95.86
2022-11-05T06:09:35.387Z,95.95
2022-11-05T06:12:02.080Z,96.92
2022-11-05T06:14:28.477Z,95.24
2022-11-05T06:16:54.880Z,95.27
2022-11-05T06:19:21.308Z,94.12
2022-11-05T06:21:47.694Z,94.25
2022-11-05T06:24:14.191Z,94.22
2022-11-05T06:26:43.114Z,93.80
2022-11-05T06:29:10.723Z,93.31
2022-11-05T06:31:37.181Z,93.79
2022-11-05T06:34:03.707Z,93.68
2022-11-05T06:36:30.035Z,93.04
2022-11-05T06:38:56.359Z,92.77
2022-11-05T06:41:22.799Z,94.68
2022-11-05T06:43:49.166Z,96.89
2022-11-05T06:46:15.668Z,97.07
2022-11-05T06:48:42.174Z,96.86
2022-11-05T06:51:09.400Z,96.56
2022-11-05T06:53:36.137Z,96.41
2022-11-05T06:56:04.973Z,96.97
2022-11-05T06:58:31.694Z,97.14
2022-11-05T07:01:05.991Z,96.34
2022-11-05T07:03:32.455Z,94.43
2022-11-05T07:06:02.969Z,93.37
2022-11-05T07:08:37.599Z,92.79
2022-11-05T07:11:04.731Z,92.36
2022-11-05T07:13:31.171Z,91.63
2022-11-05T07:15:57.874Z,91.79
2022-11-05T07:18:24.782Z,91.88
2022-11-05T07:20:51.244Z,94.08
2022-11-05T07:23:17.720Z,94.14
2022-11-05T07:25:44.219Z,93.77
2022-11-05T07:28:11.194Z,93.72
2022-11-05T07:30:37.829Z,93.24
2022-11-05T07:33:04.611Z,93.34
2022-11-05T07:35:31.174Z,93.46
2022-11-05T07:37:57.678Z,93.60
2022-11-05T07:40:26.443Z,92.53
2022-11-05T07:43:02.392Z,91.92
2022-11-05T07:45:30.575Z,92.52
2022-11-05T07:48:00.451Z,92.31
2022-11-05T07:50:29.362Z,91.66
2022-11-05T07:53:12.338Z,91.50
2022-11-05T07:55:41.539Z,91.58
2022-11-05T07:58:08.165Z,91.72
2022-11-05T08:00:34.606Z,91.91
2022-11-05T08:03:08.376Z,91.40
2022-11-05T08:05:37.463Z,90.81
2022-11-05T08:08:04.810Z,89.71
2022-11-05T08:10:31.372Z,88.79
2022-11-05T08:12:57.845Z,89.10
2022-11-05T08:15:24.440Z,88.38
2022-11-05T08:17:57.427Z,87.40
2022-11-05T08:20:23.853Z,87.05
2022-11-05T08:22:50.223Z,86.90
2022-11-05T08:25:16.651Z,86.13
2022-11-05T08:27:43.056Z,85.72
2022-11-05T08:30:09.935Z,85.22
2022-11-05T08:32:36.395Z,85.41
2022-11-05T08:35:02.910Z,85.19
2022-11-05T08:37:29.334Z,84.07
2022-11-05T08:39:56.014Z,84.16
2022-11-05T08:42:22.374Z,83.00
2022-11-05T08:44:48.745Z,83.26
2022-11-05T08:47:15.253Z,82.95
2022-11-05T08:49:41.810Z,83.50
2022-11-05T08:52:08.289Z,82.49
2022-11-05T08:54:34.906Z,83.89
2022-11-05T08:57:01.459Z,83.20
2022-11-05T08:59:29.766Z,83.48
2022-11-05T09:01:56.254Z,82.46
2022-11-05T09:04:23.096Z,83.18
2022-11-05T09:06:49.444Z,81.36
2022-11-05T09:09:15.914Z,77.48
2022-11-05T09:12:10.052Z,74.04
2022-11-05T09:14:30.065Z,68.24
2022-11-05T09:16:56.491Z,66.59
2022-11-05T09:19:22.924Z,63.93
2022-11-05T09:21:49.323Z,61.92
2022-11-05T09:24:16.210Z,60.34
2022-11-05T09:26:42.618Z,58.22
2022-11-05T09:29:14.038Z,59.06
2022-11-05T09:31:41.190Z,56.87
2022-11-05T09:34:07.571Z,59.33
2022-11-05T09:36:33.980Z,56.37
2022-11-05T09:39:00.911Z,54.53
2022-11-05T09:41:32.591Z,53.57
2022-11-05T09:44:11.333Z,50.66
2022-11-05T09:46:50.005Z,49.45
2022-11-05T09:49:39.982Z,54.96
2022-11-05T09:52:11.991Z,56.75
2022-11-05T09:54:38.392Z,54.18
2022-11-05T09:57:07.809Z,53.30
2022-11-05T09:59:41.391Z,55.24
2022-11-05T10:02:33.049Z,61.94
2022-11-05T10:05:09.418Z,61.25
2022-11-05T10:07:45.122Z,63.26
2022-11-05T10:10:27.100Z,64.76
2022-11-05T10:12:58.803Z,63.33
2022-11-05T10:15:31.171Z,62.56
2022-11-05T10:18:16.603Z,62.14
2022-11-05T10:20:44.462Z,63.18
2022-11-05T10:23:17.130Z,63.30
2022-11-05T10:25:50.709Z,63.75
2022-11-05T10:28:26.284Z,63.42
2022-11-05T10:30:58.124Z,65.91
2022-11-05T10:33:46.773Z,66.86
2022-11-05T10:36:28.274Z,67.04
2022-11-05T10:39:01.560Z,66.17
2022-11-05T10:41:52.660Z,63.11
2022-11-05T10:44:48.817Z,55.47
2022-11-05T10:47:33.587Z,50.39
2022-11-05T10:50:02.659Z,47.86
2022-11-05T10:52:35.488Z,48.89
2022-11-05T10:55:10.511Z,46.15
2022-11-05T10:57:39.561Z,43.79
2022-11-05T11:00:15.302Z,38.58
2022-11-05T11:02:43.096Z,35.59
2022-11-05T11:05:29.870Z,34.25
2022-11-05T11:08:05.336Z,33.74
2022-11-05T11:10:39.319Z,32.60
2022-11-05T11:13:06.534Z,32.08
2022-11-05T11:15:32.908Z,31.42
2022-11-05T11:18:31.510Z,30.63
2022-11-05T11:21:23.041Z,31.27
2022-11-05T11:24:04.286Z,32.15
2022-11-05T11:26:37.446Z,32.03
2022-11-05T11:29:25.604Z,31.23
2022-11-05T11:32:01.034Z,32.16
2022-11-05T11:34:38.797Z,31.37
2022-11-05T11:37:25.183Z,29.32
2022-11-05T11:40:14.743Z,31.47
2022-11-05T11:42:46.172Z,33.38
2022-11-05T11:45:25.837Z,33.87
2022-11-05T11:47:52.365Z,35.17
2022-11-05T11:50:34.268Z,39.21
2022-11-05T11:53:35.878Z,40.61
2022-11-05T11:56:04.609Z,39.82
2022-11-05T11:58:41.916Z,41.25
2022-11-05T12:01:36.575Z,44.43
2022-11-05T12:04:28.464Z,42.59
2022-11-05T12:07:39.167Z,39.45
2022-11-05T12:10:18.302Z,36.58
2022-11-05T12:12:59.800Z,34.49
2022-11-05T12:15:46.450Z,34.77
2022-11-05T12:18:35.248Z,37.95
2022-11-05T12:21:24.994Z,35.07
2022-11-05T12:24:45.736Z,38.84
2022-11-05T12:27:25.797Z,40.42
2022-11-05T12:30:03.873Z,37.91
2022-11-05T12:32:42.332Z,37.85
2022-11-05T12:35:33.856Z,39.10
2022-11-05T12:38:19.023Z,43.64
2022-11-05T12:41:10.611Z,44.08
2022-11-05T12:44:14.386Z,44.30
2022-11-05T12:46:56.043Z,43.26
2022-11-05T12:49:41.036Z,44.78
2022-11-05T12:52:13.596Z,42.67
2022-11-05T12:54:59.463Z,44.34
2022-11-05T12:57:28.603Z,47.64
2022-11-05T13:00:07.158Z,48.83
2022-11-05T13:02:33.602Z,50.07
2022-11-05T13:05:16.823Z,52.61
2022-11-05T13:08:02.523Z,53.54
2022-11-05T13:10:44.733Z,54.64
2022-11-05T13:13:39.912Z,56.06
2022-11-05T13:16:13.916Z,57.59
2022-11-05T13:19:15.780Z,57.90
2022-11-05T13:21:45.437Z,57.54
2022-11-05T13:24:23.458Z,55.77
2022-11-05T13:26:58.694Z,56.77
2022-11-05T13:30:02.005Z,58.17
2022-11-05T13:32:35.336Z,57.43
2022-11-05T13:35:13.703Z,58.15
2022-11-05T13:38:02.667Z,56.96
2022-11-05T13:40:54.109Z,55.59
2022-11-05T13:43:45.095Z,50.61
2022-11-05T13:46:23.565Z,49.42
2022-11-05T13:49:24.095Z,51.50
2022-11-05T13:52:22.608Z,53.98
2022-11-05T13:54:54.789Z,55.37
2022-11-05T13:57:33.089Z,57.06
2022-11-05T14:00:05.520Z,58.98
2022-11-05T14:02:43.338Z,59.38
2022-11-05T14:05:28.167Z,59.50
2022-11-05T14:07:56.595Z,59.83
2022-11-05T14:10:30.231Z,60.45
2022-11-05T14:13:01.134Z,60.96
2022-11-05T14:15:30.005Z,61.84
2022-11-05T14:18:03.510Z,62.27
2022-11-05T14:20:33.097Z,62.34
2022-11-05T14:23:21.013Z,62.41
2022-11-05T14:25:50.339Z,62.42
2022-11-05T14:28:35.131Z,63.41
2022-11-05T14:31:47.426Z,63.52
2022-11-05T14:34:13.404Z,63.40
2022-11-05T14:36:46.371Z,64.42
2022-11-05T14:39:28.890Z,65.48
2022-11-05T14:42:12.140Z,66.92
2022-11-05T14:44:58.105Z,67.83
2022-11-05T14:47:28.737Z,66.95
2022-11-05T14:50:01.836Z,66.39
2022-11-05T14:52:28.872Z,66.50
2022-11-05T14:54:57.541Z,67.14
2022-11-05T14:57:42.215Z,66.70
2022-11-05T15:00:31.209Z,66.30
2022-11-05T15:03:46.422Z,67.14
2022-11-05T15:06:19.186Z,67.88
2022-11-05T15:08:48.600Z,67.82
2022-11-05T15:11:21.313Z,68.04
2022-11-05T15:13:53.832Z,68.03
2022-11-05T15:16:25.052Z,68.62
2022-11-05T15:18:54.056Z,68.93
2022-11-05T15:21:21.416Z,68.70
2022-11-05T15:23:51.892Z,68.75
2022-11-05T15:26:28.101Z,68.95
2022-11-05T15:28:56.221Z,68.73
2022-11-05T15:31:32.110Z,68.45
2022-11-05T15:34:20.061Z,67.99
2022-11-05T15:36:53.396Z,68.88
2022-11-05T15:39:29.983Z,69.85
2022-11-05T15:41:58.743Z,69.90
2022-11-05T15:44:30.580Z,70.24
2022-11-05T15:47:35.440Z,71.54
2022-11-05T15:50:15.394Z,71.47
2022-11-05T15:52:50.728Z,72.11
2022-11-05T15:55:26.154Z,73.58
2022-11-05T15:57:52.584Z,74.10
2022-11-05T16:00:21.708Z,74.14
2022-11-05T16:02:58.869Z,73.78
2022-11-05T16:05:27.870Z,74.33
2022-11-05T16:07:58.139Z,75.28
2022-11-05T16:10:29.795Z,76.31
2022-11-05T16:12:56.748Z,76.81
2022-11-05T16:15:32.810Z,76.83
2022-11-05T16:18:00.245Z,77.10
2022-11-05T16:20:36.955Z,78.27
2022-11-05T16:23:22.765Z,78.62
2022-11-05T16:25:50.312Z,80.50
2022-11-05T16:28:25.958Z,80.76
2022-11-05T16:31:04.483Z,81.25
2022-11-05T16:33:35.271Z,80.73
2022-11-05T16:36:01.796Z,81.28
2022-11-05T16:38:28.255Z,82.80
2022-11-05T16:40:54.828Z,82.43
2022-11-05T16:43:25.395Z,83.89
2022-11-05T16:46:02.408Z,84.39
2022-11-05T16:48:31.211Z,83.32
2022-11-05T16:50:57.769Z,82.88
2022-11-05T16:53:28.137Z,82.79
2022-11-05T16:55:59.344Z,83.02
2022-11-05T16:58:26.678Z,83.58
2022-11-05T17:01:00.940Z,84.56
2022-11-05T17:03:27.492Z,84.54
2022-11-05T17:05:53.993Z,84.83
2022-11-05T17:08:23.738Z,85.59
2022-11-05T17:10:50.410Z,85.69
2022-11-05T17:13:19.724Z,86.06
2022-11-05T17:15:49.525Z,87.15
2022-11-05T17:18:18.894Z,87.20
2022-11-05T17:20:48.595Z,87.45
2022-11-05T17:23:18.412Z,87.99
2022-11-05T17:25:47.817Z,87.84
2022-11-05T17:28:15.149Z,88.48
2022-11-05T17:30:43.909Z,89.34
2022-11-05T17:33:16.155Z,88.05
2022-11-05T17:35:42.977Z,88.71
2022-11-05T17:38:11.082Z,89.26
2022-11-05T17:40:38.019Z,90.16
2022-11-05T17:43:05.046Z,89.49
2022-11-05T17:45:31.751Z,88.99
2022-11-05T17:47:58.201Z,89.87
2022-11-05T17:50:24.901Z,89.42
2022-11-05T17:52:52.206Z,89.40
2022-11-05T17:55:18.780Z,89.14
2022-11-05T17:57:48.550Z,88.79
2022-11-05T18:00:18.235Z,89.14
2022-11-05T18:02:46.030Z,88.65
2022-11-05T18:05:12.847Z,88.57
2022-11-05T18:07:39.756Z,88.79
2022-11-05T18:10:06.892Z,88.48
2022-11-05T18:12:33.831Z,88.02
2022-11-05T18:15:00.582Z,87.92
2022-11-05T18:17:27.012Z,88.33
2022-11-05T18:19:53.477Z,88.20
2022-11-05T18:22:20.403Z,88.94
2022-11-05T18:24:46.884Z,89.36
2022-11-05T18:27:13.703Z,88.92
2022-11-05T18:29:41.334Z,89.38
2022-11-05T18:32:08.882Z,89.18
2022-11-05T18:34:35.878Z,89.79
2022-11-05T18:37:02.496Z,89.81
2022-11-05T18:39:29.808Z,90.28
2022-11-05T18:41:56.958Z,90.53
2022-11-05T18:44:24.798Z,90.01
2022-11-05T18:46:58.205Z,90.35
2022-11-05T18:49:27.038Z,90.29
2022-11-05T18:51:54.060Z,90.28
2022-11-05T18:54:20.615Z,89.58
2022-11-05T18:56:47.272Z,90.05
2022-11-05T19:02:04.936Z,89.63
2022-11-05T19:04:31.503Z,90.03
2022-11-05T19:07:01.691Z,90.13
2022-11-05T19:09:31.437Z,89.44
2022-11-05T19:11:58.115Z,89.82
2022-11-05T19:14:24.583Z,88.79
2022-11-05T19:16:50.982Z,89.38
2022-11-05T19:19:17.617Z,89.22
2022-11-05T19:21:44.508Z,88.80
2022-11-05T19:24:16.698Z,88.21
2022-11-05T19:26:44.035Z,88.34
2022-11-05T19:29:10.461Z,87.93
2022-11-05T19:31:37.017Z,88.22
2022-11-05T19:34:05.316Z,89.16
2022-11-05T19:36:32.965Z,90.06
2022-11-05T19:39:04.740Z,90.04
2022-11-05T19:41:31.285Z,89.73
2022-11-05T19:43:58.123Z,89.91
2022-11-05T19:46:25.531Z,89.74
2022-11-05T19:48:52.409Z,89.86
2022-11-05T19:51:22.612Z,90.16
2022-11-05T19:53:49.688Z,89.49
2022-11-05T19:56:19.229Z,89.77
2022-11-05T19:58:46.097Z,89.67
2022-11-05T20:01:14.300Z,88.86
2022-11-05T20:03:41.483Z,89.65
2022-11-05T20:06:10.808Z,89.99
2022-11-05T20:08:59.378Z,89.71
2022-11-05T20:11:25.523Z,90.09
2022-11-05T20:13:52.219Z,90.17
2022-11-05T20:16:40.278Z,90.40
2022-11-05T20:19:11.200Z,90.70
2022-11-05T20:21:38.345Z,89.90
2022-11-05T20:24:05.582Z,90.02
2022-11-05T20:26:32.664Z,89.77
2022-11-05T20:28:59.306Z,90.47
2022-11-05T20:31:25.941Z,90.19
2022-11-05T20:33:53.329Z,90.41
2022-11-05T20:36:24.903Z,90.60
2022-11-05T20:38:58.360Z,90.28
2022-11-05T20:41:26.054Z,90.15
2022-11-05T20:43:53.149Z,90.25
2022-11-05T20:46:21.934Z,90.36
2022-11-05T20:48:49.098Z,90.02
2022-11-05T20:51:19.453Z,89.64
2022-11-05T20:53:46.563Z,89.41
2022-11-05T20:56:22.617Z,90.03
2022-11-05T20:58:49.518Z,89.68
2022-11-05T21:01:17.139Z,90.24
2022-11-05T21:03:44.982Z,90.59
2022-11-05T21:06:11.901Z,90.56
2022-11-05T21:08:38.373Z,90.44
2022-11-05T21:11:05.671Z,90.74
2022-11-05T21:13:32.995Z,89.88
2022-11-05T21:16:00.758Z,90.08
2022-11-05T21:18:29.797Z,90.53
2022-11-05T21:20:56.592Z,89.99
2022-11-05T21:23:23.276Z,89.92
2022-11-05T21:25:49.667Z,89.42
2022-11-05T21:28:16.713Z,89.21
2022-11-05T21:30:45.924Z,89.99
2022-11-05T21:33:14.854Z,90.92
2022-11-05T21:35:46.115Z,90.86
2022-11-05T21:38:15.126Z,91.41
2022-11-05T21:40:42.453Z,89.89
2022-11-05T21:43:09.486Z,90.61
2022-11-05T21:45:41.621Z,90.33
2022-11-05T21:48:09.703Z,89.71
2022-11-05T21:50:57.132Z,90.02
2022-11-05T21:53:43.188Z,90.60
2022-11-05T21:56:46.698Z,90.93
2022-11-05T21:59:34.851Z,91.44
2022-11-05T22:02:02.511Z,91.17
2022-11-05T22:04:30.464Z,91.37
2022-11-05T22:06:57.087Z,90.94
2022-11-05T22:09:24.751Z,92.08
2022-11-05T22:11:51.605Z,91.20
2022-11-05T22:14:18.892Z,91.73
2022-11-05T22:16:45.279Z,91.04
2022-11-05T22:19:11.930Z,90.84
2022-11-05T22:21:39.514Z,91.65
2022-11-05T22:24:06.472Z,91.06
2022-11-05T22:26:33.505Z,91.37
2022-11-05T22:28:59.936Z,91.43
2022-11-05T22:31:27.793Z,91.11
2022-11-05T22:33:56.964Z,91.70
2022-11-05T22:36:23.405Z,91.62
2022-11-05T22:38:50.027Z,91.55
2022-11-05T22:41:19.528Z,91.34
2022-11-05T22:43:46.565Z,90.65
2022-11-05T22:46:16.142Z,90.68
2022-11-05T22:48:43.431Z,91.19
2022-11-05T22:51:18.385Z,93.18
2022-11-05T22:53:45.296Z,92.32
2022-11-05T22:56:14.201Z,91.54
2022-11-05T22:58:41.142Z,91.34
2022-11-05T23:01:09.288Z,92.15
2022-11-05T23:03:35.789Z,93.02
2022-11-05T23:06:05.232Z,94.08
2022-11-05T23:08:50.694Z,93.61
2022-11-05T23:11:35.518Z,93.18
2022-11-05T23:14:03.079Z,92.78
2022-11-05T23:16:55.604Z,91.74
2022-11-05T23:19:41.243Z,92.14
2022-11-05T23:22:33.079Z,91.49
2022-11-05T23:24:59.796Z,92.03
2022-11-05T23:27:31.138Z,92.90
2022-11-05T23:29:59.249Z,93.30
2022-11-05T23:32:28.450Z,92.73
2022-11-05T23:34:57.114Z,93.15
2022-11-05T23:37:46.345Z,93.56
2022-11-05T23:40:16.506Z,92.92
2022-11-05T23:43:02.954Z,92.49
2022-11-05T23:45:48.903Z,93.32
2022-11-05T23:48:19.141Z,93.85
2022-11-05T23:51:00.114Z,94.49
2022-11-05T23:53:27.537Z,94.98
2022-11-05T23:55:59.348Z,95.40
2022-11-05T23:58:25.833Z,94.96
